createdAt,value
2023-03-13T00:01:40.074Z,7.60
2023-03-13T00:04:08.284Z,7.60
2023-03-13T00:06:37.315Z,7.60
2023-03-13T00:09:07.098Z,7.60
2023-03-13T00:11:34.925Z,7.60
2023-03-13T00:14:04.367Z,7.60
2023-03-13T00:16:34.309Z,7.60
2023-03-13T00:19:03.984Z,7.70
2023-03-13T00:21:31.859Z,7.70
2023-03-13T00:24:00.547Z,7.70
2023-03-13T00:26:29.487Z,7.70
2023-03-13T00:28:57.479Z,7.70
2023-03-13T00:31:27.197Z,7.80
2023-03-13T00:33:56.509Z,7.80
2023-03-13T00:36:28.000Z,7.80
2023-03-13T00:38:59.116Z,7.80
2023-03-13T00:41:28.756Z,7.80
2023-03-13T00:43:56.715Z,7.80
2023-03-13T00:46:26.568Z,7.80
2023-03-13T00:48:54.533Z,7.90
2023-03-13T00:51:23.717Z,7.90
2023-03-13T00:53:52.748Z,7.90
2023-03-13T00:56:21.336Z,7.90
2023-03-13T00:58:50.691Z,7.90
2023-03-13T01:01:20.871Z,7.90
2023-03-13T01:03:50.686Z,7.90
2023-03-13T01:06:21.062Z,8.00
2023-03-13T01:08:49.088Z,8.00
2023-03-13T01:11:20.357Z,8.00
2023-03-13T01:13:49.031Z,8.00
2023-03-13T01:16:19.093Z,8.00
2023-03-13T01:18:48.936Z,8.00
2023-03-13T01:21:19.627Z,8.00
2023-03-13T01:23:48.584Z,8.00
2023-03-13T01:26:17.894Z,8.00
2023-03-13T01:28:45.911Z,8.00
2023-03-13T01:31:15.030Z,8.00
2023-03-13T01:33:43.235Z,8.00
2023-03-13T01:36:11.088Z,8.00
2023-03-13T01:38:39.648Z,8.00
2023-03-13T01:41:08.600Z,8.00
2023-03-13T01:43:38.163Z,8.00
2023-03-13T01:46:17.858Z,8.00
2023-03-13T01:48:50.655Z,8.00
2023-03-13T01:51:23.499Z,8.00
2023-03-13T01:53:57.085Z,8.00
2023-03-13T01:56:30.355Z,8.00
2023-03-13T01:59:00.593Z,7.90
2023-03-13T02:01:28.850Z,8.00
2023-03-13T02:03:57.799Z,8.00
2023-03-13T02:06:28.659Z,8.00
2023-03-13T02:08:59.519Z,8.00
2023-03-13T02:11:34.492Z,8.00
2023-03-13T02:14:05.578Z,8.00
2023-03-13T02:16:35.008Z,8.00
2023-03-13T02:19:04.105Z,8.00
2023-03-13T02:21:40.816Z,8.00
2023-03-13T02:24:15.426Z,8.00
2023-03-13T02:26:44.508Z,8.00
2023-03-13T02:29:18.102Z,8.00
2023-03-13T02:31:47.446Z,8.10
2023-03-13T02:34:18.623Z,8.00
2023-03-13T02:36:47.162Z,8.10
2023-03-13T02:39:18.312Z,8.10
2023-03-13T02:41:48.362Z,8.10
2023-03-13T02:44:16.053Z,8.10
2023-03-13T02:46:50.178Z,8.10
2023-03-13T02:49:24.297Z,8.10
2023-03-13T02:51:53.577Z,8.10
2023-03-13T02:54:24.099Z,8.10
2023-03-13T02:56:56.906Z,8.10
2023-03-13T02:59:25.084Z,8.10
2023-03-13T03:01:53.524Z,8.10
2023-03-13T03:04:21.966Z,8.10
2023-03-13T03:06:50.409Z,8.10
2023-03-13T03:09:18.746Z,8.10
2023-03-13T03:11:47.045Z,8.10
2023-03-13T03:14:16.310Z,8.10
2023-03-13T03:16:44.804Z,8.10
2023-03-13T03:19:12.540Z,8.10
2023-03-13T03:21:40.384Z,8.10
2023-03-13T03:24:08.686Z,8.10
2023-03-13T03:26:36.515Z,8.10
2023-03-13T03:29:04.811Z,8.10
2023-03-13T03:31:33.900Z,8.10
2023-03-13T03:34:01.791Z,8.10
2023-03-13T03:36:30.545Z,8.10
2023-03-13T03:38:58.264Z,8.10
2023-03-13T03:41:26.014Z,8.10
2023-03-13T03:43:53.821Z,8.10
2023-03-13T03:46:21.634Z,8.10
2023-03-13T03:48:50.770Z,8.20
2023-03-13T03:51:18.603Z,8.20
2023-03-13T03:53:46.322Z,8.20
2023-03-13T03:56:14.075Z,8.20
2023-03-13T03:58:41.947Z,8.20
2023-03-13T04:01:09.700Z,8.20
2023-03-13T04:03:37.511Z,8.20
2023-03-13T04:06:07.917Z,8.20
2023-03-13T04:08:35.640Z,8.20
2023-03-13T04:11:03.607Z,8.30
2023-03-13T04:13:31.340Z,8.30
2023-03-13T04:15:59.084Z,8.30
2023-03-13T04:18:26.854Z,8.30
2023-03-13T04:21:01.698Z,8.30
2023-03-13T04:23:30.765Z,8.30
2023-03-13T04:25:58.720Z,8.30
2023-03-13T04:28:26.454Z,8.40
2023-03-13T04:30:57.181Z,8.40
2023-03-13T04:33:25.175Z,8.40
2023-03-13T04:35:53.050Z,8.40
2023-03-13T04:38:20.780Z,8.40
2023-03-13T04:40:50.045Z,8.40
2023-03-13T04:43:17.769Z,8.40
2023-03-13T04:45:46.454Z,8.40
2023-03-13T04:48:14.562Z,8.40
2023-03-13T04:50:42.430Z,8.50
2023-03-13T04:53:10.218Z,8.50
2023-03-13T04:55:37.951Z,8.50
2023-03-13T04:58:07.021Z,8.50
2023-03-13T05:00:34.754Z,8.50
2023-03-13T05:03:02.481Z,8.50
2023-03-13T05:05:30.325Z,8.50
2023-03-13T05:07:58.102Z,8.60
2023-03-13T05:10:25.931Z,8.60
2023-03-13T05:12:53.717Z,8.60
2023-03-13T05:15:22.847Z,8.60
2023-03-13T05:17:51.262Z,8.60
2023-03-13T05:20:20.354Z,8.60
2023-03-13T05:22:48.084Z,8.60
2023-03-13T05:25:15.957Z,8.70
2023-03-13T05:27:43.662Z,8.70
2023-03-13T05:30:12.734Z,8.70
2023-03-13T05:32:42.003Z,8.70
2023-03-13T05:35:10.005Z,8.70
2023-03-13T05:37:40.778Z,8.80
2023-03-13T05:40:10.354Z,8.80
2023-03-13T05:42:38.069Z,8.80
2023-03-13T05:45:06.467Z,8.90
2023-03-13T05:47:34.197Z,8.90
2023-03-13T05:50:03.356Z,8.90
2023-03-13T05:52:31.071Z,9.00
2023-03-13T05:54:58.779Z,9.00
2023-03-13T05:57:26.544Z,9.10
2023-03-13T05:59:54.737Z,9.10
2023-03-13T06:02:22.491Z,9.20
2023-03-13T06:04:50.266Z,9.20
2023-03-13T06:07:19.374Z,9.20
2023-03-13T06:09:47.073Z,9.30
2023-03-13T06:12:15.024Z,9.30
2023-03-13T06:14:42.734Z,9.30
2023-03-13T06:17:10.475Z,9.40
2023-03-13T06:19:38.173Z,9.40
2023-03-13T06:22:06.081Z,9.50
2023-03-13T06:24:35.336Z,9.50
2023-03-13T06:27:03.033Z,9.60
2023-03-13T06:29:30.743Z,9.70
2023-03-13T06:31:58.671Z,9.70
2023-03-13T06:34:26.429Z,9.70
2023-03-13T06:36:54.165Z,9.80
2023-03-13T06:39:21.981Z,9.90
2023-03-13T06:41:51.060Z,9.90
2023-03-13T06:44:18.797Z,10.00
2023-03-13T06:46:46.530Z,10.00
2023-03-13T06:49:14.312Z,10.10
2023-03-13T06:51:42.025Z,10.10
2023-03-13T06:54:09.732Z,10.10
2023-03-13T06:56:37.524Z,10.20
2023-03-13T06:59:06.598Z,10.20
2023-03-13T07:01:34.323Z,10.30
2023-03-13T07:04:02.118Z,10.30
2023-03-13T07:06:29.977Z,10.30
2023-03-13T07:08:57.712Z,10.30
2023-03-13T07:11:25.991Z,10.40
2023-03-13T07:14:06.508Z,10.40
2023-03-13T07:16:44.262Z,10.40
2023-03-13T07:19:12.084Z,10.40
2023-03-13T07:21:39.832Z,10.50
2023-03-13T07:24:08.140Z,10.50
2023-03-13T07:26:35.918Z,10.50
2023-03-13T07:29:03.941Z,10.50
2023-03-13T07:31:33.841Z,10.60
2023-03-13T07:34:02.977Z,10.60
2023-03-13T07:36:30.856Z,10.70
2023-03-13T07:38:58.641Z,10.70
2023-03-13T07:41:26.351Z,10.70
2023-03-13T07:43:54.072Z,10.70
2023-03-13T07:46:21.948Z,10.80
2023-03-13T07:48:50.264Z,10.80
2023-03-13T07:51:30.314Z,10.80
2023-03-13T07:54:01.285Z,10.80
2023-03-13T07:56:29.180Z,10.90
2023-03-13T07:58:56.889Z,10.90
2023-03-13T08:01:29.114Z,10.90
2023-03-13T08:03:58.652Z,11.00
2023-03-13T08:06:28.185Z,11.10
2023-03-13T08:08:58.794Z,11.10
2023-03-13T08:11:28.168Z,11.10
2023-03-13T08:13:57.508Z,11.20
2023-03-13T08:16:26.740Z,11.20
2023-03-13T08:18:56.185Z,11.20
2023-03-13T08:21:26.298Z,11.20
2023-03-13T08:23:56.937Z,11.20
2023-03-13T08:26:27.048Z,11.30
2023-03-13T08:28:56.693Z,11.30
2023-03-13T08:31:26.344Z,11.30
2023-03-13T08:33:54.511Z,11.30
2023-03-13T08:36:24.965Z,11.30
2023-03-13T08:38:55.417Z,11.30
2023-03-13T08:41:25.206Z,11.30
2023-03-13T08:43:53.962Z,11.30
2023-03-13T08:46:21.924Z,11.40
2023-03-13T08:48:50.651Z,11.40
2023-03-13T08:51:19.403Z,11.40
2023-03-13T08:53:47.507Z,11.40
2023-03-13T08:56:18.814Z,11.40
2023-03-13T08:58:50.520Z,11.40
2023-03-13T09:01:19.172Z,11.40
2023-03-13T09:03:46.994Z,11.30
2023-03-13T09:06:14.931Z,11.30
2023-03-13T09:08:43.627Z,11.30
2023-03-13T09:11:14.021Z,11.30
2023-03-13T09:13:45.457Z,11.20
2023-03-13T09:16:15.365Z,11.20
2023-03-13T09:18:43.755Z,11.20
2023-03-13T09:21:14.109Z,11.20
2023-03-13T09:23:41.890Z,11.10
2023-03-13T09:26:10.397Z,11.10
2023-03-13T09:28:38.208Z,11.10
2023-03-13T09:31:11.975Z,11.10
2023-03-13T09:33:40.253Z,11.10
2023-03-13T09:36:09.160Z,11.10
2023-03-13T09:38:38.012Z,11.10
2023-03-13T09:41:15.531Z,11.00
2023-03-13T09:43:51.269Z,11.10
2023-03-13T09:46:25.994Z,11.00
2023-03-13T09:48:57.175Z,11.00
2023-03-13T09:51:28.886Z,11.00
2023-03-13T09:54:00.995Z,11.00
2023-03-13T09:56:34.945Z,11.00
2023-03-13T09:59:12.142Z,11.00
2023-03-13T10:01:43.214Z,11.00
2023-03-13T10:04:26.761Z,11.00
2023-03-13T10:06:54.594Z,11.00
2023-03-13T10:09:28.137Z,11.00
2023-03-13T10:12:03.152Z,11.00
2023-03-13T10:14:34.793Z,11.10
2023-03-13T10:17:11.163Z,11.10
2023-03-13T10:19:43.386Z,11.10
2023-03-13T10:22:15.370Z,11.10
2023-03-13T10:24:50.874Z,11.10
2023-03-13T10:27:18.644Z,11.10
2023-03-13T10:29:46.525Z,11.20
2023-03-13T10:32:17.753Z,11.20
2023-03-13T10:34:55.260Z,11.20
2023-03-13T10:37:25.508Z,11.20
2023-03-13T10:39:53.618Z,11.30
2023-03-13T10:42:30.140Z,11.40
2023-03-13T10:45:00.321Z,11.60
2023-03-13T10:47:34.501Z,11.60
2023-03-13T10:50:04.039Z,11.70
2023-03-13T10:52:34.857Z,11.80
2023-03-13T10:55:05.540Z,11.90
2023-03-13T10:57:35.221Z,11.90
2023-03-13T11:00:10.813Z,12.00
2023-03-13T11:02:40.510Z,12.00
2023-03-13T11:05:38.462Z,12.10
2023-03-13T11:08:21.806Z,12.20
2023-03-13T11:10:56.725Z,12.20
2023-03-13T11:13:38.180Z,12.20
2023-03-13T11:16:19.824Z,12.30
2023-03-13T11:19:10.547Z,12.40
2023-03-13T11:21:45.227Z,12.40
2023-03-13T11:24:18.435Z,12.50
2023-03-13T11:27:04.134Z,12.60
2023-03-13T11:29:42.923Z,12.60
2023-03-13T11:32:21.207Z,12.70
2023-03-13T11:34:53.540Z,12.70
2023-03-13T11:37:23.257Z,12.80
2023-03-13T11:39:59.703Z,12.80
2023-03-13T11:43:11.399Z,12.90
2023-03-13T11:46:02.877Z,12.90
2023-03-13T11:49:00.542Z,13.00
2023-03-13T11:51:36.742Z,13.10
2023-03-13T11:54:23.100Z,13.10
2023-03-13T11:56:56.221Z,13.10
2023-03-13T11:59:35.929Z,13.20
2023-03-13T12:02:14.207Z,13.20
2023-03-13T12:04:45.184Z,13.20
2023-03-13T12:07:22.241Z,13.20
2023-03-13T12:09:54.714Z,13.20
2023-03-13T12:12:34.146Z,13.20
2023-03-13T12:15:09.590Z,13.20
2023-03-13T12:17:40.238Z,13.30
2023-03-13T12:20:14.566Z,13.30
2023-03-13T12:22:49.255Z,13.40
2023-03-13T12:25:24.658Z,13.40
2023-03-13T12:27:56.042Z,13.40
2023-03-13T12:30:31.960Z,13.40
2023-03-13T12:33:04.355Z,13.40
2023-03-13T12:35:38.441Z,13.40
2023-03-13T12:38:16.006Z,13.40
2023-03-13T12:40:52.445Z,13.40
2023-03-13T12:43:23.238Z,13.40
2023-03-13T12:46:08.169Z,13.50
2023-03-13T12:49:05.375Z,13.50
2023-03-13T12:51:44.953Z,13.60
2023-03-13T12:54:32.729Z,13.70
2023-03-13T12:57:15.084Z,13.60
2023-03-13T12:59:46.032Z,13.70
2023-03-13T13:02:17.476Z,13.70
2023-03-13T13:04:47.624Z,13.70
2023-03-13T13:07:26.631Z,13.70
2023-03-13T13:10:16.396Z,13.80
2023-03-13T13:12:45.074Z,13.80
2023-03-13T13:15:19.601Z,13.80
2023-03-13T13:18:04.137Z,13.80
2023-03-13T13:21:11.892Z,13.80
2023-03-13T13:23:43.627Z,13.90
2023-03-13T13:26:47.791Z,13.90
2023-03-13T13:29:58.177Z,13.90
2023-03-13T13:32:42.180Z,14.00
2023-03-13T13:35:28.597Z,13.90
2023-03-13T13:38:29.959Z,14.00
2023-03-13T13:41:03.358Z,14.00
2023-03-13T13:43:33.689Z,14.00
2023-03-13T13:46:05.916Z,14.00
2023-03-13T13:48:36.266Z,14.00
2023-03-13T13:51:23.836Z,14.00
2023-03-13T13:53:54.674Z,14.00
2023-03-13T13:56:43.836Z,14.00
2023-03-13T13:59:32.696Z,14.00
2023-03-13T14:02:16.287Z,14.00
2023-03-13T14:04:50.201Z,14.00
2023-03-13T14:07:20.457Z,14.00
2023-03-13T14:09:55.577Z,14.00
2023-03-13T14:12:28.541Z,14.00
2023-03-13T14:15:19.869Z,14.00
2023-03-13T14:17:49.590Z,14.00
2023-03-13T14:20:22.774Z,14.00
2023-03-13T14:22:53.525Z,14.10
2023-03-13T14:25:21.733Z,14.10
2023-03-13T14:27:50.195Z,14.10
2023-03-13T14:30:19.703Z,14.20
2023-03-13T14:32:47.791Z,14.20
2023-03-13T14:35:19.224Z,14.20
2023-03-13T14:37:50.250Z,14.30
2023-03-13T14:40:25.016Z,14.30
2023-03-13T14:42:54.380Z,14.40
2023-03-13T14:45:25.772Z,14.40
2023-03-13T14:47:55.612Z,14.40
2023-03-13T14:50:25.568Z,14.40
2023-03-13T14:52:59.354Z,14.40
2023-03-13T14:55:33.520Z,14.40
2023-03-13T14:58:04.947Z,14.40
2023-03-13T15:00:41.282Z,14.30
2023-03-13T15:03:29.951Z,14.30
2023-03-13T15:06:16.291Z,14.30
2023-03-13T15:08:46.793Z,14.30
2023-03-13T15:11:26.125Z,14.20
2023-03-13T15:13:54.476Z,14.20
2023-03-13T15:16:24.150Z,14.20
2023-03-13T15:18:53.067Z,14.20
2023-03-13T15:21:27.095Z,14.20
2023-03-13T15:24:00.477Z,14.20
2023-03-13T15:26:29.115Z,14.20
2023-03-13T15:28:56.836Z,14.20
2023-03-13T15:31:28.595Z,14.20
2023-03-13T15:33:59.019Z,14.20
2023-03-13T15:36:28.216Z,14.20
2023-03-13T15:38:57.358Z,14.20
2023-03-13T15:41:25.239Z,14.20
2023-03-13T15:43:55.208Z,14.20
2023-03-13T15:46:24.265Z,14.20
2023-03-13T15:48:52.309Z,14.10
2023-03-13T15:51:20.816Z,14.10
2023-03-13T15:53:48.943Z,14.10
2023-03-13T15:56:19.745Z,14.10
2023-03-13T15:58:48.710Z,14.10
2023-03-13T16:01:18.011Z,14.10
2023-03-13T16:03:45.852Z,14.10
2023-03-13T16:06:17.385Z,14.10
2023-03-13T16:08:46.140Z,14.10
2023-03-13T16:11:16.322Z,14.10
2023-03-13T16:13:45.642Z,14.10
2023-03-13T16:16:21.142Z,14.10
2023-03-13T16:18:49.674Z,14.10
2023-03-13T16:21:21.361Z,14.10
2023-03-13T16:23:49.311Z,14.10
2023-03-13T16:26:19.115Z,14.10
2023-03-13T16:28:48.436Z,14.10
2023-03-13T16:31:19.693Z,14.10
2023-03-13T16:33:48.770Z,14.10
2023-03-13T16:36:18.638Z,14.00
2023-03-13T16:38:46.940Z,14.00
2023-03-13T16:41:16.437Z,14.00
2023-03-13T16:43:44.599Z,14.00
2023-03-13T16:46:16.230Z,14.00
2023-03-13T16:48:44.054Z,13.90
2023-03-13T16:51:18.042Z,13.90
2023-03-13T16:53:47.212Z,13.80
2023-03-13T16:56:20.913Z,13.80
2023-03-13T16:58:48.677Z,13.80
2023-03-13T17:01:18.032Z,13.70
2023-03-13T17:03:46.121Z,13.60
2023-03-13T17:06:17.809Z,13.60
2023-03-13T17:08:45.796Z,13.60
2023-03-13T17:11:17.982Z,13.50
2023-03-13T17:13:47.714Z,13.40
2023-03-13T17:16:19.130Z,13.40
2023-03-13T17:18:49.809Z,13.30
2023-03-13T17:21:19.338Z,13.30
2023-03-13T17:23:47.593Z,13.20
2023-03-13T17:26:19.327Z,13.20
2023-03-13T17:28:49.105Z,13.20
2023-03-13T17:31:18.957Z,13.20
2023-03-13T17:33:47.136Z,13.10
2023-03-13T17:36:20.808Z,13.10
2023-03-13T17:38:50.236Z,13.10
2023-03-13T17:41:21.623Z,13.10
2023-03-13T17:43:49.354Z,13.00
2023-03-13T17:46:20.573Z,13.00
2023-03-13T17:48:49.652Z,13.00
2023-03-13T17:51:20.053Z,12.90
2023-03-13T17:53:48.140Z,12.90
2023-03-13T17:56:18.879Z,12.80
2023-03-13T17:58:48.584Z,12.80
2023-03-13T18:01:17.968Z,12.80
2023-03-13T18:03:47.059Z,12.80
2023-03-13T18:06:20.190Z,12.80
2023-03-13T18:08:48.429Z,12.70
2023-03-13T18:11:17.250Z,12.70
2023-03-13T18:13:45.641Z,12.70
2023-03-13T18:16:28.009Z,12.60
2023-03-13T18:18:57.894Z,12.60
2023-03-13T18:21:25.676Z,12.60
2023-03-13T18:23:54.054Z,12.60
2023-03-13T18:26:24.903Z,12.50
2023-03-13T18:28:55.449Z,12.50
2023-03-13T18:31:23.293Z,12.50
2023-03-13T18:33:51.058Z,12.50
2023-03-13T18:36:21.439Z,12.40
2023-03-13T18:38:49.763Z,12.40
2023-03-13T18:41:18.508Z,12.40
2023-03-13T18:43:46.549Z,12.40
2023-03-13T18:46:19.287Z,12.30
2023-03-13T18:48:47.471Z,12.40
2023-03-13T18:51:16.186Z,12.30
2023-03-13T18:53:46.321Z,12.40
2023-03-13T18:56:18.865Z,12.30
2023-03-13T18:58:50.154Z,12.30
2023-03-13T19:01:19.854Z,12.30
2023-03-13T19:03:48.366Z,12.30
2023-03-13T19:06:22.325Z,12.30
2023-03-13T19:08:53.443Z,12.30
2023-03-13T19:11:25.716Z,12.30
2023-03-13T19:13:53.528Z,12.30
2023-03-13T19:16:23.623Z,12.30
2023-03-13T19:18:52.534Z,12.30
2023-03-13T19:21:23.289Z,12.30
2023-03-13T19:23:53.886Z,12.20
2023-03-13T19:26:27.582Z,12.20
2023-03-13T19:28:55.455Z,12.20
2023-03-13T19:31:23.782Z,12.20
2023-03-13T19:33:53.356Z,12.20
2023-03-13T19:36:23.034Z,12.20
2023-03-13T19:38:52.462Z,12.20
2023-03-13T19:41:20.210Z,12.20
2023-03-13T19:43:48.102Z,12.10
2023-03-13T19:46:22.939Z,12.10
2023-03-13T19:48:53.464Z,12.10
2023-03-13T19:51:21.513Z,12.00
2023-03-13T19:53:49.246Z,12.00
2023-03-13T19:56:20.969Z,12.00
2023-03-13T19:58:49.862Z,12.00
2023-03-13T20:01:18.114Z,11.90
2023-03-13T20:03:46.605Z,11.90
2023-03-13T20:06:19.297Z,11.90
2023-03-13T20:08:47.779Z,11.80
2023-03-13T20:11:15.784Z,11.80
2023-03-13T20:13:44.837Z,11.70
2023-03-13T20:16:13.257Z,11.70
2023-03-13T20:18:43.209Z,11.60
2023-03-13T20:21:11.887Z,11.60
2023-03-13T20:23:39.598Z,11.60
2023-03-13T20:26:09.701Z,11.50
2023-03-13T20:28:37.579Z,11.50
2023-03-13T20:31:07.585Z,11.50
2023-03-13T20:33:36.195Z,11.50
2023-03-13T20:36:06.475Z,11.40
2023-03-13T20:38:34.780Z,11.40
2023-03-13T20:41:03.262Z,11.40
2023-03-13T20:43:31.306Z,11.40
2023-03-13T20:45:59.321Z,11.40
2023-03-13T20:48:29.023Z,11.30
2023-03-13T20:51:00.168Z,11.30
2023-03-13T20:53:28.626Z,11.30
2023-03-13T20:55:56.342Z,11.20
2023-03-13T20:58:24.455Z,11.20
2023-03-13T21:00:52.197Z,11.20
2023-03-13T21:03:19.904Z,11.20
2023-03-13T21:05:48.963Z,11.10
2023-03-13T21:08:16.674Z,11.10
2023-03-13T21:10:44.424Z,11.10
2023-03-13T21:13:12.828Z,11.00
2023-03-13T21:15:41.332Z,11.00
2023-03-13T21:18:09.133Z,11.00
2023-03-13T21:20:39.017Z,11.00
2023-03-13T21:23:08.071Z,10.90
2023-03-13T21:25:35.800Z,10.90
2023-03-13T21:28:03.596Z,10.90
2023-03-13T21:30:31.364Z,10.90
2023-03-13T21:32:59.077Z,10.80
2023-03-13T21:35:27.076Z,10.80
2023-03-13T21:37:54.853Z,10.80
2023-03-13T21:40:23.936Z,10.70
2023-03-13T21:42:51.631Z,10.70
2023-03-13T21:45:19.606Z,10.70
2023-03-13T21:47:47.493Z,10.60
2023-03-13T21:50:15.233Z,10.60
2023-03-13T21:52:43.189Z,10.60
2023-03-13T21:55:13.334Z,10.60
2023-03-13T21:57:42.444Z,10.50
2023-03-13T22:00:13.701Z,10.50
2023-03-13T22:02:41.899Z,10.50
2023-03-13T22:05:10.477Z,10.50
2023-03-13T22:07:38.281Z,10.50
2023-03-13T22:10:06.962Z,10.50
2023-03-13T22:12:34.721Z,10.50
2023-03-13T22:15:03.906Z,10.50
2023-03-13T22:17:31.607Z,10.50
2023-03-13T22:19:59.379Z,10.50
2023-03-13T22:22:27.105Z,10.50
2023-03-13T22:24:55.082Z,10.50
2023-03-13T22:27:24.035Z,10.60
2023-03-13T22:29:52.080Z,10.60
2023-03-13T22:32:21.185Z,10.60
2023-03-13T22:34:49.061Z,10.60
2023-03-13T22:37:16.938Z,10.60
2023-03-13T22:39:44.680Z,10.60
2023-03-13T22:42:12.419Z,10.60
2023-03-13T22:44:40.123Z,10.60
2023-03-13T22:47:07.875Z,10.60
2023-03-13T22:49:36.940Z,10.60
2023-03-13T22:52:04.892Z,10.60
2023-03-13T22:54:33.089Z,10.60
2023-03-13T22:57:00.853Z,10.50
2023-03-13T22:59:28.572Z,10.50
2023-03-13T23:01:56.469Z,10.50
2023-03-13T23:04:24.217Z,10.40
2023-03-13T23:06:53.330Z,10.40
2023-03-13T23:09:21.133Z,10.40
2023-03-13T23:11:48.901Z,10.30
2023-03-13T23:14:16.625Z,10.30
2023-03-13T23:16:44.464Z,10.30
2023-03-13T23:19:12.175Z,10.20
2023-03-13T23:21:39.994Z,10.20
2023-03-13T23:24:09.701Z,10.20
2023-03-13T23:26:37.820Z,10.20
2023-03-13T23:29:05.637Z,10.20
2023-03-13T23:31:33.746Z,10.20
2023-03-13T23:34:01.798Z,10.10
2023-03-13T23:36:30.455Z,10.10
2023-03-13T23:38:59.504Z,10.20
2023-03-13T23:41:28.571Z,10.10
2023-03-13T23:43:56.279Z,10.10
2023-03-13T23:46:26.863Z,10.10
2023-03-13T23:48:55.109Z,10.10
2023-03-13T23:51:23.665Z,10.10
2023-03-13T23:53:51.678Z,10.10
2023-03-13T23:56:19.500Z,10.10
2023-03-13T23:58:48.544Z,10.10
